Terminal Aerodrome Forecast
Issued by NWS

Current Version | Previous Version | Graphics & Text | Print | Product List | Glossary On
Versions: 1 2 3 4 5 6 7 8 9 10 11 12 13 14 15
582
FTUS41 KPBZ 240520
TAFHLG
TAF
KHLG 240520Z 2406/2506 27005KT P6SM VCSH OVC006
     FM240730 28005KT P6SM BKN012
     FM240900 28006KT P6SM BKN025
     FM241100 28006KT P6SM SCT050
     FM241700 26010G18KT P6SM SCT100
     FM250100 27005KT P6SM SCT250=

USA.gov is the U.S. government's official web portal to all federal, state and local government web resources and services.